createdAt,value
2022-07-31T00:00:25.495Z,64.14
2022-07-31T00:02:52.665Z,64.39
2022-07-31T00:05:19.792Z,64.95
2022-07-31T00:07:47.022Z,64.93
2022-07-31T00:10:14.169Z,65.08
2022-07-31T00:12:41.285Z,65.30
2022-07-31T00:15:12.838Z,65.50
2022-07-31T00:17:40.932Z,66.23
2022-07-31T00:20:09.596Z,66.12
2022-07-31T00:22:36.702Z,66.13
2022-07-31T00:25:04.019Z,65.39
2022-07-31T00:27:31.154Z,64.77
2022-07-31T00:29:58.239Z,64.73
2022-07-31T00:32:25.415Z,65.16
2022-07-31T00:34:52.683Z,65.44
2022-07-31T00:37:19.758Z,65.06
2022-07-31T00:39:46.811Z,64.79
2022-07-31T00:42:22.038Z,65.16
2022-07-31T00:44:51.160Z,65.16
2022-07-31T00:47:23.856Z,65.14
2022-07-31T00:49:52.995Z,65.35
2022-07-31T00:52:20.560Z,65.35
2022-07-31T00:54:47.773Z,65.69
2022-07-31T00:57:15.615Z,65.92
2022-07-31T00:59:43.866Z,66.03
2022-07-31T01:02:11.627Z,66.16
2022-07-31T01:04:41.652Z,66.35
2022-07-31T01:07:09.318Z,66.83
2022-07-31T01:09:36.468Z,66.96
2022-07-31T01:12:22.759Z,66.65
2022-07-31T01:14:57.011Z,66.76
2022-07-31T01:17:26.688Z,65.49
2022-07-31T01:19:55.006Z,66.49
2022-07-31T01:22:44.329Z,64.90
2022-07-31T01:25:38.508Z,64.50
2022-07-31T01:28:36.482Z,65.32
2022-07-31T01:31:27.273Z,65.55
2022-07-31T01:34:14.880Z,65.63
2022-07-31T01:36:46.487Z,65.72
2022-07-31T01:39:13.831Z,65.96
2022-07-31T01:41:46.524Z,66.49
2022-07-31T01:44:17.894Z,66.38
2022-07-31T01:46:47.104Z,66.94
2022-07-31T01:49:19.151Z,66.87
2022-07-31T01:51:48.387Z,66.90
2022-07-31T01:54:20.289Z,66.66
2022-07-31T01:56:49.630Z,66.42
2022-07-31T01:59:20.294Z,66.41
2022-07-31T02:02:09.949Z,66.24
2022-07-31T02:04:38.762Z,66.12
2022-07-31T02:07:08.395Z,66.50
2022-07-31T02:09:37.788Z,66.66
2022-07-31T02:12:33.319Z,66.60
2022-07-31T02:15:22.702Z,66.01
2022-07-31T02:17:52.647Z,65.80
2022-07-31T02:20:24.668Z,60.32
2022-07-31T02:22:55.743Z,56.62
2022-07-31T02:25:23.352Z,53.61
2022-07-31T02:27:54.398Z,51.32
2022-07-31T02:30:38.236Z,48.78
2022-07-31T02:33:15.839Z,47.19
2022-07-31T02:35:45.827Z,47.79
2022-07-31T02:38:22.993Z,47.34
2022-07-31T02:40:57.856Z,45.77
2022-07-31T02:43:26.898Z,45.38
2022-07-31T02:45:57.590Z,48.38
2022-07-31T02:48:26.670Z,51.64
2022-07-31T02:50:57.115Z,53.54
2022-07-31T02:53:24.938Z,54.19
2022-07-31T02:55:56.538Z,53.46
2022-07-31T02:58:23.629Z,52.37
2022-07-31T03:01:01.731Z,52.18
2022-07-31T03:03:30.930Z,53.67
2022-07-31T03:05:58.320Z,54.57
2022-07-31T03:08:26.773Z,54.59
2022-07-31T03:10:56.133Z,55.19
2022-07-31T03:13:27.621Z,55.08
2022-07-31T03:15:55.970Z,55.08
2022-07-31T03:18:24.022Z,55.10
2022-07-31T03:20:52.600Z,54.79
2022-07-31T03:23:22.151Z,53.46
2022-07-31T03:25:54.784Z,52.03
2022-07-31T03:28:23.049Z,52.11
2022-07-31T03:30:56.167Z,50.53
2022-07-31T03:33:26.452Z,51.03
2022-07-31T03:35:53.932Z,52.13
2022-07-31T03:38:39.484Z,53.20
2022-07-31T03:41:10.922Z,53.08
2022-07-31T03:43:46.907Z,53.60
2022-07-31T03:46:21.403Z,53.65
2022-07-31T03:48:52.563Z,53.13
2022-07-31T03:51:20.600Z,53.60
2022-07-31T03:53:48.742Z,53.98
2022-07-31T03:56:41.080Z,54.13
2022-07-31T03:59:13.995Z,54.45
2022-07-31T04:01:57.316Z,54.48
2022-07-31T04:05:09.786Z,55.05
2022-07-31T04:07:38.771Z,54.72
2022-07-31T04:10:06.825Z,54.38
2022-07-31T04:12:34.080Z,54.18
2022-07-31T04:15:01.135Z,53.62
2022-07-31T04:17:30.663Z,53.93
2022-07-31T04:19:58.477Z,53.46
2022-07-31T04:22:26.548Z,53.19
2022-07-31T04:24:54.844Z,53.55
2022-07-31T04:27:48.901Z,54.20
2022-07-31T04:30:17.445Z,54.43
2022-07-31T04:32:45.538Z,53.38
2022-07-31T04:35:17.855Z,53.03
2022-07-31T04:37:48.340Z,52.58
2022-07-31T04:40:16.431Z,52.92
2022-07-31T04:42:43.935Z,53.46
2022-07-31T04:45:11.120Z,52.96
2022-07-31T04:47:38.650Z,52.41
2022-07-31T04:50:06.324Z,52.43
2022-07-31T04:52:35.125Z,53.37
2022-07-31T04:55:08.498Z,53.10
2022-07-31T04:57:35.584Z,53.30
2022-07-31T05:00:02.873Z,50.76
2022-07-31T05:02:33.069Z,52.83
2022-07-31T05:05:00.463Z,53.03
2022-07-31T05:07:32.637Z,51.87
2022-07-31T05:10:04.925Z,51.91
2022-07-31T05:12:32.171Z,51.07
2022-07-31T05:14:59.277Z,52.08
2022-07-31T05:17:26.344Z,51.18
2022-07-31T05:20:13.653Z,50.77
2022-07-31T05:22:48.879Z,50.65
2022-07-31T05:25:32.448Z,50.23
2022-07-31T05:27:59.609Z,50.79
2022-07-31T05:30:30.506Z,51.07
2022-07-31T05:32:58.713Z,50.39
2022-07-31T05:35:26.379Z,49.31
2022-07-31T05:37:53.778Z,49.11
2022-07-31T05:40:34.076Z,48.21
2022-07-31T05:43:33.576Z,48.25
2022-07-31T05:46:23.539Z,49.03
2022-07-31T05:48:51.646Z,48.69
2022-07-31T05:51:20.164Z,48.59
2022-07-31T05:53:48.804Z,48.82
2022-07-31T05:56:48.211Z,47.57
2022-07-31T05:59:18.941Z,46.75
2022-07-31T06:01:46.639Z,46.15
2022-07-31T06:04:13.816Z,46.36
2022-07-31T06:06:43.871Z,44.13
2022-07-31T06:09:11.941Z,46.32
2022-07-31T06:11:43.099Z,46.50
2022-07-31T06:14:10.238Z,45.47
2022-07-31T06:17:08.242Z,44.56
2022-07-31T06:19:37.507Z,43.81
2022-07-31T06:22:04.882Z,40.76
2022-07-31T06:24:33.584Z,42.45
2022-07-31T06:27:02.557Z,41.48
2022-07-31T06:29:41.767Z,41.53
2022-07-31T06:32:10.503Z,41.90
2022-07-31T06:34:38.447Z,41.32
2022-07-31T06:37:06.479Z,41.40
2022-07-31T06:39:54.757Z,39.73
2022-07-31T06:42:35.741Z,39.42
2022-07-31T06:45:06.089Z,37.46
2022-07-31T06:47:51.328Z,37.72
2022-07-31T06:50:29.609Z,37.15
2022-07-31T06:53:17.061Z,37.68
2022-07-31T06:55:44.481Z,36.57
2022-07-31T06:58:12.190Z,37.62
2022-07-31T07:00:39.276Z,37.95
2022-07-31T07:03:06.593Z,37.43
2022-07-31T07:05:33.667Z,36.62
2022-07-31T07:08:02.760Z,36.97
2022-07-31T07:10:31.831Z,38.14
2022-07-31T07:12:58.906Z,36.72
2022-07-31T07:15:27.232Z,36.46
2022-07-31T07:17:54.464Z,36.53
2022-07-31T07:20:32.052Z,36.58
2022-07-31T07:22:59.150Z,38.14
2022-07-31T07:25:45.000Z,37.33
2022-07-31T07:28:30.680Z,36.95
2022-07-31T07:31:00.693Z,37.19
2022-07-31T07:33:41.263Z,37.05
2022-07-31T07:36:23.223Z,36.33
2022-07-31T07:38:56.342Z,36.38
2022-07-31T07:41:25.322Z,36.30
2022-07-31T07:43:53.411Z,35.96
2022-07-31T07:46:24.155Z,36.51
2022-07-31T07:48:55.721Z,35.78
2022-07-31T07:51:35.088Z,36.20
2022-07-31T07:54:24.909Z,36.69
2022-07-31T07:57:20.592Z,35.46
2022-07-31T08:00:08.763Z,35.27
2022-07-31T08:03:02.701Z,37.27
2022-07-31T08:05:40.932Z,36.59
2022-07-31T08:08:08.149Z,36.54
2022-07-31T08:11:01.233Z,36.47
2022-07-31T08:13:50.972Z,36.01
2022-07-31T08:16:37.111Z,37.88
2022-07-31T08:19:04.380Z,37.52
2022-07-31T08:21:32.276Z,38.26
2022-07-31T08:23:59.371Z,37.80
2022-07-31T08:26:27.262Z,38.71
2022-07-31T08:28:56.011Z,37.94
2022-07-31T08:31:26.047Z,38.58
2022-07-31T08:34:31.670Z,37.76
2022-07-31T08:37:52.573Z,38.17
2022-07-31T08:39:51.433Z,36.90
2022-07-31T08:42:19.173Z,37.25
2022-07-31T08:44:47.124Z,38.75
2022-07-31T08:47:18.160Z,37.86
2022-07-31T08:49:47.713Z,38.30
2022-07-31T08:52:24.511Z,37.48
2022-07-31T08:54:58.566Z,36.58
2022-07-31T08:57:27.076Z,36.75
2022-07-31T08:59:55.498Z,36.88
2022-07-31T09:02:22.784Z,36.67
2022-07-31T09:05:10.614Z,35.76
2022-07-31T09:07:41.312Z,37.76
2022-07-31T09:10:29.225Z,36.01
2022-07-31T09:12:57.447Z,36.25
2022-07-31T09:15:29.331Z,36.78
2022-07-31T09:17:59.799Z,37.72
2022-07-31T09:20:29.455Z,37.70
2022-07-31T09:23:08.269Z,38.25
2022-07-31T09:25:39.306Z,36.21
2022-07-31T09:28:07.642Z,36.61
2022-07-31T09:30:35.821Z,35.79
2022-07-31T09:33:46.940Z,37.56
2022-07-31T09:36:33.025Z,36.44
2022-07-31T09:39:27.643Z,35.14
2022-07-31T09:42:16.366Z,35.33
2022-07-31T09:44:52.650Z,34.86
2022-07-31T09:47:22.093Z,34.93
2022-07-31T09:50:01.894Z,37.48
2022-07-31T09:52:33.519Z,36.01
2022-07-31T09:55:14.337Z,37.13
2022-07-31T09:57:58.224Z,36.45
2022-07-31T10:00:28.874Z,37.57
2022-07-31T10:02:57.970Z,35.62
2022-07-31T10:05:28.009Z,35.47
2022-07-31T10:08:00.356Z,35.55
2022-07-31T10:10:49.838Z,36.42
2022-07-31T10:13:42.320Z,36.94
2022-07-31T10:16:10.492Z,37.24
2022-07-31T10:18:55.625Z,35.30
2022-07-31T10:21:42.309Z,35.35
2022-07-31T10:24:13.162Z,35.56
2022-07-31T10:26:59.885Z,35.26
2022-07-31T10:29:32.318Z,35.57
2022-07-31T10:32:02.158Z,35.89
2022-07-31T10:34:30.279Z,34.74
2022-07-31T10:37:16.834Z,35.63
2022-07-31T10:40:26.847Z,35.25
2022-07-31T10:43:16.937Z,34.68
2022-07-31T10:45:50.771Z,34.82
2022-07-31T10:48:32.070Z,35.48
2022-07-31T10:51:26.675Z,35.47
2022-07-31T10:54:25.992Z,36.27
2022-07-31T10:57:05.125Z,36.63
2022-07-31T11:00:12.178Z,36.21
2022-07-31T11:02:59.672Z,36.82
2022-07-31T11:06:01.303Z,35.94
2022-07-31T11:08:57.585Z,35.38
2022-07-31T11:11:46.580Z,35.85
2022-07-31T11:14:43.793Z,35.77
2022-07-31T11:18:23.182Z,34.96
2022-07-31T11:20:46.980Z,35.45
2022-07-31T11:23:19.803Z,34.24
2022-07-31T11:25:47.102Z,34.79
2022-07-31T11:28:27.501Z,34.36
2022-07-31T11:30:57.785Z,34.60
2022-07-31T11:33:39.555Z,32.51
2022-07-31T11:36:20.981Z,33.62
2022-07-31T11:38:49.968Z,34.63
2022-07-31T11:41:22.174Z,33.94
2022-07-31T11:43:52.330Z,35.41
2022-07-31T11:46:27.883Z,36.16
2022-07-31T11:48:56.203Z,32.82
2022-07-31T11:51:27.640Z,34.48
2022-07-31T11:53:57.432Z,34.80
2022-07-31T11:56:27.519Z,35.80
2022-07-31T11:58:57.222Z,35.11
2022-07-31T12:01:27.575Z,34.71
2022-07-31T12:03:56.044Z,34.38
2022-07-31T12:06:23.558Z,33.90
2022-07-31T12:08:52.885Z,33.98
2022-07-31T12:11:21.363Z,33.89
2022-07-31T12:13:49.929Z,34.07
2022-07-31T12:16:18.925Z,34.15
2022-07-31T12:19:01.038Z,32.68
2022-07-31T12:21:36.570Z,33.34
2022-07-31T12:24:12.649Z,32.61
2022-07-31T12:26:43.990Z,34.43
2022-07-31T12:29:13.157Z,34.61
2022-07-31T12:31:55.339Z,34.45
2022-07-31T12:34:42.958Z,35.09
2022-07-31T12:37:17.677Z,33.85
2022-07-31T12:39:59.393Z,34.25
2022-07-31T12:42:41.865Z,34.31
2022-07-31T12:45:19.819Z,34.28
2022-07-31T12:47:51.190Z,34.48
2022-07-31T12:50:25.116Z,34.99
2022-07-31T12:52:53.263Z,35.80
2022-07-31T12:55:20.586Z,35.69
2022-07-31T12:57:53.915Z,35.54
2022-07-31T13:00:24.057Z,35.42
2022-07-31T13:02:59.796Z,36.00
2022-07-31T13:05:27.614Z,36.02
2022-07-31T13:07:54.865Z,35.52
2022-07-31T13:10:24.813Z,35.29
2022-07-31T13:12:53.468Z,35.26
2022-07-31T13:15:31.397Z,35.46
2022-07-31T13:18:01.929Z,34.86
2022-07-31T13:20:31.703Z,35.28
2022-07-31T13:23:02.867Z,35.20
2022-07-31T13:25:33.094Z,35.11
2022-07-31T13:28:00.774Z,35.66
2022-07-31T13:30:28.928Z,35.33
2022-07-31T13:32:56.373Z,35.51
2022-07-31T13:35:28.488Z,35.72
2022-07-31T13:37:57.082Z,35.66
2022-07-31T13:40:43.816Z,36.71
2022-07-31T13:43:11.666Z,35.80
2022-07-31T13:45:39.089Z,36.15
2022-07-31T13:48:09.641Z,36.89
2022-07-31T13:50:39.885Z,35.00
2022-07-31T13:53:07.345Z,34.32
2022-07-31T13:55:38.405Z,35.39
2022-07-31T13:58:06.088Z,35.09
2022-07-31T14:00:33.500Z,36.17
2022-07-31T14:03:00.917Z,35.13
2022-07-31T14:05:28.198Z,34.41
2022-07-31T14:07:56.386Z,35.19
2022-07-31T14:10:43.956Z,35.20
2022-07-31T14:13:16.520Z,34.14
2022-07-31T14:15:43.733Z,34.56
2022-07-31T14:18:10.978Z,34.48
2022-07-31T14:20:39.252Z,33.73
2022-07-31T14:23:08.503Z,35.42
2022-07-31T14:25:39.965Z,36.40
2022-07-31T14:28:08.378Z,35.27
2022-07-31T14:30:37.263Z,34.86
2022-07-31T14:33:05.246Z,35.95
2022-07-31T14:35:33.793Z,35.26
2022-07-31T14:38:04.184Z,36.71
2022-07-31T14:40:31.966Z,35.91
2022-07-31T14:42:59.497Z,34.54
2022-07-31T14:45:26.783Z,34.93
2022-07-31T14:47:55.344Z,34.06
2022-07-31T14:50:23.627Z,35.80
2022-07-31T14:52:50.968Z,35.48
2022-07-31T14:55:19.465Z,34.86
2022-07-31T14:57:46.621Z,34.33
2022-07-31T15:00:15.005Z,36.52
2022-07-31T15:02:43.800Z,34.54
2022-07-31T15:06:53.673Z,34.74
2022-07-31T15:07:59.485Z,34.71
2022-07-31T15:10:26.675Z,34.55
2022-07-31T15:12:53.777Z,34.40
2022-07-31T15:15:21.093Z,34.25
2022-07-31T15:17:48.334Z,34.24
2022-07-31T15:20:15.905Z,35.17
2022-07-31T15:22:43.276Z,35.88
2022-07-31T15:25:10.763Z,36.65
2022-07-31T15:27:38.059Z,37.13
2022-07-31T15:30:07.736Z,37.04
2022-07-31T15:32:53.996Z,37.68
2022-07-31T15:35:21.177Z,37.63
2022-07-31T15:37:49.747Z,38.35
2022-07-31T15:40:17.914Z,37.91
2022-07-31T15:42:46.577Z,37.87
2022-07-31T15:45:15.920Z,38.00
2022-07-31T15:47:44.732Z,38.33
2022-07-31T15:50:14.768Z,38.32
2022-07-31T15:52:42.732Z,39.03
2022-07-31T15:55:10.368Z,39.03
2022-07-31T15:57:38.759Z,39.32
2022-07-31T16:00:12.012Z,40.01
2022-07-31T16:02:39.670Z,39.75
2022-07-31T16:05:12.071Z,40.00
2022-07-31T16:08:32.410Z,39.88
2022-07-31T16:10:36.173Z,39.95
2022-07-31T16:13:03.721Z,40.33
2022-07-31T16:15:32.046Z,40.50
2022-07-31T16:17:59.196Z,40.94
2022-07-31T16:20:27.254Z,41.03
2022-07-31T16:22:57.003Z,40.95
2022-07-31T16:25:26.157Z,41.00
2022-07-31T16:27:53.542Z,41.27
2022-07-31T16:30:21.856Z,41.15
2022-07-31T16:32:49.770Z,40.90
2022-07-31T16:35:16.948Z,40.76
2022-07-31T16:37:50.221Z,40.90
2022-07-31T16:40:30.983Z,40.71
2022-07-31T16:43:01.456Z,40.37
2022-07-31T16:45:29.719Z,40.90
2022-07-31T16:47:57.381Z,41.23
2022-07-31T16:50:25.653Z,40.91
2022-07-31T16:52:55.032Z,40.71
2022-07-31T16:55:51.520Z,41.11
2022-07-31T16:58:11.801Z,41.19
2022-07-31T17:00:39.652Z,41.60
2022-07-31T17:03:07.155Z,41.32
2022-07-31T17:05:54.263Z,41.71
2022-07-31T17:08:21.850Z,41.43
2022-07-31T17:10:53.954Z,41.53
2022-07-31T17:13:22.558Z,41.55
2022-07-31T17:15:49.722Z,41.24
2022-07-31T17:18:16.980Z,41.85
2022-07-31T17:20:47.233Z,42.13
2022-07-31T17:23:15.693Z,42.12
2022-07-31T17:25:43.134Z,42.26
2022-07-31T17:28:15.068Z,42.21
2022-07-31T17:30:45.010Z,42.42
2022-07-31T17:33:12.547Z,42.45
2022-07-31T17:35:40.125Z,42.26
2022-07-31T17:38:07.476Z,42.63
2022-07-31T17:40:43.599Z,42.81
2022-07-31T17:43:11.218Z,43.12
2022-07-31T17:45:59.556Z,43.12
2022-07-31T17:48:28.291Z,43.41
2022-07-31T17:50:55.367Z,43.12
2022-07-31T17:53:22.478Z,43.37
2022-07-31T17:55:49.915Z,43.33
2022-07-31T17:58:17.120Z,43.57
2022-07-31T18:00:44.286Z,43.26
2022-07-31T18:03:11.370Z,43.16
2022-07-31T18:05:38.886Z,43.07
2022-07-31T18:08:06.437Z,43.43
2022-07-31T18:10:53.651Z,43.21
2022-07-31T18:13:20.666Z,43.68
2022-07-31T18:15:47.842Z,43.79
2022-07-31T18:18:15.035Z,43.59
2022-07-31T18:20:45.196Z,43.73
2022-07-31T18:23:12.650Z,43.66
2022-07-31T18:25:41.723Z,43.81
2022-07-31T18:28:09.517Z,44.06
2022-07-31T18:30:41.262Z,44.20
2022-07-31T18:33:10.058Z,44.07
2022-07-31T18:35:37.260Z,44.56
2022-07-31T18:38:04.587Z,44.66
2022-07-31T18:40:32.911Z,44.53
2022-07-31T18:43:00.925Z,44.68
2022-07-31T18:45:28.140Z,44.55
2022-07-31T18:47:55.359Z,44.78
2022-07-31T18:51:00.670Z,44.59
2022-07-31T18:53:09.924Z,44.62
2022-07-31T18:55:37.118Z,44.46
2022-07-31T18:58:04.965Z,44.80
2022-07-31T19:00:32.211Z,45.01
2022-07-31T19:02:59.413Z,44.85
2022-07-31T19:05:27.294Z,44.94
2022-07-31T19:07:54.592Z,44.97
2022-07-31T19:10:29.292Z,45.29
2022-07-31T19:12:58.036Z,44.86
2022-07-31T19:15:25.253Z,45.94
2022-07-31T19:17:52.485Z,44.84
2022-07-31T19:20:56.227Z,44.86
2022-07-31T19:23:12.466Z,44.65
2022-07-31T19:25:59.624Z,46.43
2022-07-31T19:28:30.581Z,45.10
2022-07-31T19:30:58.079Z,44.98
2022-07-31T19:33:25.531Z,44.79
2022-07-31T19:35:58.839Z,44.78
2022-07-31T19:38:32.571Z,46.09
2022-07-31T19:41:00.288Z,48.91
2022-07-31T19:43:28.180Z,47.62
2022-07-31T19:46:10.042Z,46.75
2022-07-31T19:48:42.701Z,46.49
2022-07-31T19:51:14.401Z,47.71
2022-07-31T19:53:42.353Z,47.07
2022-07-31T19:56:10.562Z,46.17
2022-07-31T19:58:41.286Z,46.01
2022-07-31T20:01:10.595Z,45.37
2022-07-31T20:03:37.780Z,45.74
2022-07-31T20:06:05.514Z,46.28
2022-07-31T20:08:33.910Z,46.13
2022-07-31T20:11:03.942Z,45.71
2022-07-31T20:13:35.222Z,46.54
2022-07-31T20:16:02.317Z,46.09
2022-07-31T20:18:30.716Z,46.15
2022-07-31T20:21:09.064Z,46.49
2022-07-31T20:23:38.839Z,47.24
2022-07-31T20:26:07.282Z,45.94
2022-07-31T20:28:34.828Z,47.12
2022-07-31T20:31:02.224Z,47.38
2022-07-31T20:33:29.321Z,47.12
2022-07-31T20:35:56.412Z,47.67
2022-07-31T20:38:24.413Z,47.06
2022-07-31T20:40:55.406Z,47.63
2022-07-31T20:43:25.183Z,47.58
2022-07-31T20:45:53.493Z,47.46
2022-07-31T20:48:24.039Z,47.93
2022-07-31T20:50:53.376Z,48.24
2022-07-31T20:53:21.698Z,48.23
2022-07-31T20:55:50.494Z,48.74
2022-07-31T20:58:19.597Z,48.23
2022-07-31T21:00:47.796Z,48.38
2022-07-31T21:03:16.403Z,48.57
2022-07-31T21:05:44.748Z,48.35
2022-07-31T21:08:12.235Z,48.92
2022-07-31T21:10:40.577Z,49.52
2022-07-31T21:13:07.939Z,50.23
2022-07-31T21:15:41.752Z,50.47
2022-07-31T21:18:15.685Z,51.29
2022-07-31T21:20:51.977Z,51.25
2022-07-31T21:23:27.327Z,51.50
2022-07-31T21:25:56.517Z,51.01
2022-07-31T21:28:25.695Z,50.73
2022-07-31T21:30:56.918Z,51.31
2022-07-31T21:33:26.178Z,51.98
2022-07-31T21:35:56.196Z,52.32
2022-07-31T21:38:23.667Z,52.85
2022-07-31T21:40:51.354Z,52.44
2022-07-31T21:43:22.694Z,50.06
2022-07-31T21:45:57.746Z,50.83
2022-07-31T21:48:33.445Z,50.86
2022-07-31T21:51:14.108Z,51.48
2022-07-31T21:53:42.227Z,51.50
2022-07-31T21:56:12.127Z,51.24
2022-07-31T21:58:39.269Z,51.88
2022-07-31T22:01:06.397Z,51.61
2022-07-31T22:03:33.491Z,52.11
2022-07-31T22:06:23.205Z,52.21
2022-07-31T22:08:52.927Z,52.13
2022-07-31T22:11:20.181Z,51.89
2022-07-31T22:13:47.340Z,51.76
2022-07-31T22:16:14.558Z,50.95
2022-07-31T22:18:42.449Z,51.84
2022-07-31T22:21:10.205Z,53.57
2022-07-31T22:23:37.557Z,51.92
2022-07-31T22:26:05.026Z,51.62
2022-07-31T22:28:33.255Z,52.69
2022-07-31T22:31:00.743Z,53.08
2022-07-31T22:33:27.979Z,53.41
2022-07-31T22:36:00.638Z,52.46
2022-07-31T22:38:30.062Z,52.11
2022-07-31T22:40:59.057Z,52.07
2022-07-31T22:44:13.766Z,52.27
2022-07-31T22:46:14.403Z,52.91
2022-07-31T22:48:41.751Z,53.57
2022-07-31T22:51:10.831Z,53.77
2022-07-31T22:53:41.830Z,53.03
2022-07-31T22:56:08.921Z,52.87
2022-07-31T22:58:35.999Z,51.90
2022-07-31T23:01:03.309Z,52.47
2022-07-31T23:03:30.405Z,51.59
2022-07-31T23:06:03.510Z,53.77
2022-07-31T23:08:44.708Z,52.19
2022-07-31T23:11:11.784Z,52.79
2022-07-31T23:13:39.940Z,53.89
2022-07-31T23:16:07.020Z,53.58
2022-07-31T23:18:34.317Z,53.98
2022-07-31T23:21:01.489Z,53.97
2022-07-31T23:23:28.612Z,54.14
2022-07-31T23:25:55.700Z,54.61
2022-07-31T23:28:22.811Z,54.29
2022-07-31T23:30:50.298Z,54.25
2022-07-31T23:33:18.701Z,54.23
2022-07-31T23:35:45.776Z,54.72
2022-07-31T23:38:12.832Z,55.23
2022-07-31T23:40:39.910Z,55.15
2022-07-31T23:43:07.031Z,54.85
2022-07-31T23:45:36.003Z,55.09
2022-07-31T23:48:06.194Z,55.14
2022-07-31T23:50:34.314Z,55.70
2022-07-31T23:53:01.494Z,56.32
2022-07-31T23:55:28.629Z,56.40
2022-07-31T23:57:55.690Z,56.36
